sensor_id;sensor_type;location;lat;lon;timestamp;P1;durP1;ratioP1;P2;durP2;ratioP2
22070;SDS011;11200;51.488;6.668;2022-12-29T00:02:19;1.10;;;1.00;;
22070;SDS011;11200;51.488;6.668;2022-12-29T00:04:44;0.73;;;0.73;;
22070;SDS011;11200;51.488;6.668;2022-12-29T00:07:10;1.50;;;1.00;;
22070;SDS011;11200;51.488;6.668;2022-12-29T00:09:36;0.93;;;0.90;;
22070;SDS011;11200;51.488;6.668;2022-12-29T00:12:02;1.02;;;0.85;;
22070;SDS011;11200;51.488;6.668;2022-12-29T00:14:28;1.10;;;1.00;;
22070;SDS011;11200;51.488;6.668;2022-12-29T00:17:13;1.17;;;0.90;;
22070;SDS011;11200;51.488;6.668;2022-12-29T00:19:39;1.45;;;1.10;;
22070;SDS011;11200;51.488;6.668;2022-12-29T00:22:23;1.13;;;0.90;;
22070;SDS011;11200;51.488;6.668;2022-12-29T00:25:08;1.00;;;0.90;;
22070;SDS011;11200;51.488;6.668;2022-12-29T00:27:53;0.95;;;0.88;;
22070;SDS011;11200;51.488;6.668;2022-12-29T00:30:38;0.90;;;0.90;;
22070;SDS011;11200;51.488;6.668;2022-12-29T00:33:25;0.80;;;0.80;;
22070;SDS011;11200;51.488;6.668;2022-12-29T00:36:13;0.90;;;0.90;;
22070;SDS011;11200;51.488;6.668;2022-12-29T00:38:41;0.77;;;0.77;;
22070;SDS011;11200;51.488;6.668;2022-12-29T00:41:35;0.93;;;0.80;;
22070;SDS011;11200;51.488;6.668;2022-12-29T00:44:19;1.10;;;0.90;;
22070;SDS011;11200;51.488;6.668;2022-12-29T00:46:44;0.82;;;0.80;;
22070;SDS011;11200;51.488;6.668;2022-12-29T00:49:11;1.00;;;0.90;;
22070;SDS011;11200;51.488;6.668;2022-12-29T00:51:59;1.00;;;0.90;;
22070;SDS011;11200;51.488;6.668;2022-12-29T00:54:24;0.80;;;0.80;;
22070;SDS011;11200;51.488;6.668;2022-12-29T00:56:53;1.52;;;0.90;;
22070;SDS011;11200;51.488;6.668;2022-12-29T00:59:19;0.95;;;0.85;;
22070;SDS011;11200;51.488;6.668;2022-12-29T01:01:45;1.08;;;0.75;;
22070;SDS011;11200;51.488;6.668;2022-12-29T01:04:11;0.90;;;0.90;;
22070;SDS011;11200;51.488;6.668;2022-12-29T01:06:38;1.00;;;0.80;;
22070;SDS011;11200;51.488;6.668;2022-12-29T01:09:05;0.70;;;0.70;;
22070;SDS011;11200;51.488;6.668;2022-12-29T01:11:50;0.80;;;0.77;;
22070;SDS011;11200;51.488;6.668;2022-12-29T01:14:16;2.00;;;0.60;;
22070;SDS011;11200;51.488;6.668;2022-12-29T01:16:43;0.95;;;0.80;;
22070;SDS011;11200;51.488;6.668;2022-12-29T01:19:09;0.70;;;0.70;;
22070;SDS011;11200;51.488;6.668;2022-12-29T01:21:34;1.00;;;0.80;;
22070;SDS011;11200;51.488;6.668;2022-12-29T01:24:00;0.90;;;0.70;;
22070;SDS011;11200;51.488;6.668;2022-12-29T01:26:25;0.77;;;0.77;;
22070;SDS011;11200;51.488;6.668;2022-12-29T01:28:51;0.70;;;0.70;;
22070;SDS011;11200;51.488;6.668;2022-12-29T01:31:17;1.00;;;0.82;;
22070;SDS011;11200;51.488;6.668;2022-12-29T01:33:42;1.45;;;0.85;;
22070;SDS011;11200;51.488;6.668;2022-12-29T01:36:10;0.70;;;0.70;;
22070;SDS011;11200;51.488;6.668;2022-12-29T01:38:38;0.70;;;0.70;;
22070;SDS011;11200;51.488;6.668;2022-12-29T01:41:05;0.70;;;0.70;;
22070;SDS011;11200;51.488;6.668;2022-12-29T01:46:21;0.65;;;0.65;;
22070;SDS011;11200;51.488;6.668;2022-12-29T01:49:09;0.57;;;0.57;;
22070;SDS011;11200;51.488;6.668;2022-12-29T01:51:40;0.65;;;0.65;;
22070;SDS011;11200;51.488;6.668;2022-12-29T01:54:25;0.82;;;0.70;;
22070;SDS011;11200;51.488;6.668;2022-12-29T01:56:58;0.63;;;0.63;;
22070;SDS011;11200;51.488;6.668;2022-12-29T01:59:29;0.57;;;0.55;;
22070;SDS011;11200;51.488;6.668;2022-12-29T02:02:08;0.85;;;0.60;;
22070;SDS011;11200;51.488;6.668;2022-12-29T02:04:33;0.65;;;0.65;;
22070;SDS011;11200;51.488;6.668;2022-12-29T02:07:06;0.95;;;0.70;;
22070;SDS011;11200;51.488;6.668;2022-12-29T02:09:36;0.75;;;0.75;;
22070;SDS011;11200;51.488;6.668;2022-12-29T02:12:02;0.60;;;0.60;;
22070;SDS011;11200;51.488;6.668;2022-12-29T02:14:28;0.80;;;0.68;;
22070;SDS011;11200;51.488;6.668;2022-12-29T02:19:59;0.80;;;0.60;;
22070;SDS011;11200;51.488;6.668;2022-12-29T02:31:01;0.82;;;0.60;;
22070;SDS011;11200;51.488;6.668;2022-12-29T02:39:15;1.10;;;0.80;;
22070;SDS011;11200;51.488;6.668;2022-12-29T02:42:07;1.52;;;0.70;;
22070;SDS011;11200;51.488;6.668;2022-12-29T02:50:19;1.05;;;0.73;;
22070;SDS011;11200;51.488;6.668;2022-12-29T02:52:57;1.30;;;0.82;;
22070;SDS011;11200;51.488;6.668;2022-12-29T02:55:25;1.20;;;0.85;;
22070;SDS011;11200;51.488;6.668;2022-12-29T03:00:47;1.17;;;0.80;;
22070;SDS011;11200;51.488;6.668;2022-12-29T03:03:45;0.95;;;0.80;;
22070;SDS011;11200;51.488;6.668;2022-12-29T03:06:30;2.58;;;1.00;;
22070;SDS011;11200;51.488;6.668;2022-12-29T03:15:21;1.00;;;0.82;;
22070;SDS011;11200;51.488;6.668;2022-12-29T03:18:12;1.17;;;0.90;;
22070;SDS011;11200;51.488;6.668;2022-12-29T03:20:50;1.58;;;0.90;;
22070;SDS011;11200;51.488;6.668;2022-12-29T03:23:22;1.90;;;0.80;;
22070;SDS011;11200;51.488;6.668;2022-12-29T03:25:51;1.75;;;0.80;;
22070;SDS011;11200;51.488;6.668;2022-12-29T03:28:22;1.92;;;1.00;;
22070;SDS011;11200;51.488;6.668;2022-12-29T03:30:59;1.17;;;0.93;;
22070;SDS011;11200;51.488;6.668;2022-12-29T03:33:28;1.50;;;0.90;;
22070;SDS011;11200;51.488;6.668;2022-12-29T03:36:04;1.75;;;0.98;;
22070;SDS011;11200;51.488;6.668;2022-12-29T03:38:50;1.23;;;0.80;;
22070;SDS011;11200;51.488;6.668;2022-12-29T03:41:24;2.05;;;0.90;;
22070;SDS011;11200;51.488;6.668;2022-12-29T03:43:53;0.90;;;0.73;;
22070;SDS011;11200;51.488;6.668;2022-12-29T03:46:19;1.08;;;0.77;;
22070;SDS011;11200;51.488;6.668;2022-12-29T03:48:44;1.20;;;1.00;;
22070;SDS011;11200;51.488;6.668;2022-12-29T03:51:10;1.80;;;0.80;;
22070;SDS011;11200;51.488;6.668;2022-12-29T03:53:35;1.88;;;0.90;;
22070;SDS011;11200;51.488;6.668;2022-12-29T03:56:01;0.85;;;0.70;;
22070;SDS011;11200;51.488;6.668;2022-12-29T03:58:27;2.70;;;1.00;;
22070;SDS011;11200;51.488;6.668;2022-12-29T04:00:52;2.08;;;0.93;;
22070;SDS011;11200;51.488;6.668;2022-12-29T04:03:18;2.00;;;0.80;;
22070;SDS011;11200;51.488;6.668;2022-12-29T04:05:44;1.70;;;0.80;;
22070;SDS011;11200;51.488;6.668;2022-12-29T04:08:09;2.17;;;1.08;;
22070;SDS011;11200;51.488;6.668;2022-12-29T04:10:35;1.60;;;0.90;;
22070;SDS011;11200;51.488;6.668;2022-12-29T04:13:00;1.45;;;1.00;;
22070;SDS011;11200;51.488;6.668;2022-12-29T04:15:26;2.08;;;0.77;;
22070;SDS011;11200;51.488;6.668;2022-12-29T04:17:51;1.08;;;0.80;;
22070;SDS011;11200;51.488;6.668;2022-12-29T04:20:17;1.00;;;0.80;;
22070;SDS011;11200;51.488;6.668;2022-12-29T04:23:04;1.60;;;0.85;;
22070;SDS011;11200;51.488;6.668;2022-12-29T04:25:31;1.33;;;0.85;;
22070;SDS011;11200;51.488;6.668;2022-12-29T04:27:57;1.20;;;0.80;;
22070;SDS011;11200;51.488;6.668;2022-12-29T04:30:23;1.63;;;0.88;;
22070;SDS011;11200;51.488;6.668;2022-12-29T04:32:49;1.50;;;0.90;;
22070;SDS011;11200;51.488;6.668;2022-12-29T04:35:14;2.17;;;0.98;;
22070;SDS011;11200;51.488;6.668;2022-12-29T04:37:40;1.67;;;0.80;;
22070;SDS011;11200;51.488;6.668;2022-12-29T04:40:09;1.83;;;0.80;;
22070;SDS011;11200;51.488;6.668;2022-12-29T04:42:35;1.52;;;0.90;;
22070;SDS011;11200;51.488;6.668;2022-12-29T04:45:00;2.03;;;0.80;;
22070;SDS011;11200;51.488;6.668;2022-12-29T04:47:26;1.05;;;0.90;;
22070;SDS011;11200;51.488;6.668;2022-12-29T04:49:52;1.25;;;0.80;;
22070;SDS011;11200;51.488;6.668;2022-12-29T04:52:17;1.17;;;0.70;;
22070;SDS011;11200;51.488;6.668;2022-12-29T04:54:43;0.95;;;0.63;;
22070;SDS011;11200;51.488;6.668;2022-12-29T04:57:09;1.50;;;0.70;;
22070;SDS011;11200;51.488;6.668;2022-12-29T04:59:34;0.77;;;0.77;;
22070;SDS011;11200;51.488;6.668;2022-12-29T05:02:00;1.13;;;0.68;;
22070;SDS011;11200;51.488;6.668;2022-12-29T05:04:26;1.92;;;0.73;;
22070;SDS011;11200;51.488;6.668;2022-12-29T05:06:51;0.95;;;0.75;;
22070;SDS011;11200;51.488;6.668;2022-12-29T05:09:17;0.80;;;0.70;;
22070;SDS011;11200;51.488;6.668;2022-12-29T05:11:42;0.98;;;0.50;;
22070;SDS011;11200;51.488;6.668;2022-12-29T05:14:08;1.25;;;0.73;;
22070;SDS011;11200;51.488;6.668;2022-12-29T05:16:33;1.25;;;0.68;;
22070;SDS011;11200;51.488;6.668;2022-12-29T05:18:59;1.15;;;0.75;;
22070;SDS011;11200;51.488;6.668;2022-12-29T05:21:24;1.67;;;0.65;;
22070;SDS011;11200;51.488;6.668;2022-12-29T05:23:50;1.60;;;0.65;;
22070;SDS011;11200;51.488;6.668;2022-12-29T05:26:18;0.80;;;0.60;;
22070;SDS011;11200;51.488;6.668;2022-12-29T05:28:44;1.35;;;0.70;;
22070;SDS011;11200;51.488;6.668;2022-12-29T05:31:09;0.85;;;0.73;;
22070;SDS011;11200;51.488;6.668;2022-12-29T05:33:35;1.75;;;0.68;;
22070;SDS011;11200;51.488;6.668;2022-12-29T05:36:04;1.10;;;0.65;;
22070;SDS011;11200;51.488;6.668;2022-12-29T05:38:31;1.67;;;0.70;;
22070;SDS011;11200;51.488;6.668;2022-12-29T05:40:56;1.17;;;0.60;;
22070;SDS011;11200;51.488;6.668;2022-12-29T05:43:22;1.88;;;0.68;;
22070;SDS011;11200;51.488;6.668;2022-12-29T05:45:48;1.60;;;0.68;;
22070;SDS011;11200;51.488;6.668;2022-12-29T05:48:14;1.90;;;0.77;;
22070;SDS011;11200;51.488;6.668;2022-12-29T05:50:40;1.13;;;0.70;;
22070;SDS011;11200;51.488;6.668;2022-12-29T05:53:06;3.47;;;0.90;;
22070;SDS011;11200;51.488;6.668;2022-12-29T05:55:31;1.65;;;0.70;;
22070;SDS011;11200;51.488;6.668;2022-12-29T05:57:57;1.40;;;0.80;;
22070;SDS011;11200;51.488;6.668;2022-12-29T06:00:23;1.48;;;0.90;;
22070;SDS011;11200;51.488;6.668;2022-12-29T06:02:48;2.75;;;0.80;;
22070;SDS011;11200;51.488;6.668;2022-12-29T06:05:14;1.58;;;0.77;;
22070;SDS011;11200;51.488;6.668;2022-12-29T06:07:40;1.48;;;0.57;;
22070;SDS011;11200;51.488;6.668;2022-12-29T06:10:06;1.70;;;0.70;;
22070;SDS011;11200;51.488;6.668;2022-12-29T06:12:32;1.38;;;0.65;;
22070;SDS011;11200;51.488;6.668;2022-12-29T06:14:58;1.20;;;0.70;;
22070;SDS011;11200;51.488;6.668;2022-12-29T06:17:23;1.48;;;0.80;;
22070;SDS011;11200;51.488;6.668;2022-12-29T06:19:49;2.05;;;1.10;;
22070;SDS011;11200;51.488;6.668;2022-12-29T06:22:17;1.55;;;0.75;;
22070;SDS011;11200;51.488;6.668;2022-12-29T06:24:45;1.60;;;0.70;;
22070;SDS011;11200;51.488;6.668;2022-12-29T06:27:11;2.33;;;0.90;;
22070;SDS011;11200;51.488;6.668;2022-12-29T06:29:38;3.10;;;0.80;;
22070;SDS011;11200;51.488;6.668;2022-12-29T06:32:05;1.58;;;0.60;;
22070;SDS011;11200;51.488;6.668;2022-12-29T06:34:31;1.67;;;0.80;;
22070;SDS011;11200;51.488;6.668;2022-12-29T06:36:57;1.75;;;0.90;;
22070;SDS011;11200;51.488;6.668;2022-12-29T06:39:22;2.30;;;1.00;;
22070;SDS011;11200;51.488;6.668;2022-12-29T06:41:51;2.58;;;0.90;;
22070;SDS011;11200;51.488;6.668;2022-12-29T06:44:17;1.60;;;0.90;;
22070;SDS011;11200;51.488;6.668;2022-12-29T06:46:43;1.17;;;0.77;;
22070;SDS011;11200;51.488;6.668;2022-12-29T06:49:08;3.15;;;0.90;;
22070;SDS011;11200;51.488;6.668;2022-12-29T06:51:34;2.95;;;0.90;;
22070;SDS011;11200;51.488;6.668;2022-12-29T06:53:59;2.08;;;0.90;;
22070;SDS011;11200;51.488;6.668;2022-12-29T06:56:25;2.75;;;0.85;;
22070;SDS011;11200;51.488;6.668;2022-12-29T06:58:51;2.80;;;1.08;;
22070;SDS011;11200;51.488;6.668;2022-12-29T07:01:16;2.78;;;1.13;;
22070;SDS011;11200;51.488;6.668;2022-12-29T07:03:42;2.22;;;0.80;;
22070;SDS011;11200;51.488;6.668;2022-12-29T07:06:08;3.85;;;1.13;;
22070;SDS011;11200;51.488;6.668;2022-12-29T07:08:33;2.85;;;0.93;;
22070;SDS011;11200;51.488;6.668;2022-12-29T07:10:59;2.47;;;0.98;;
22070;SDS011;11200;51.488;6.668;2022-12-29T07:13:24;2.10;;;0.93;;
22070;SDS011;11200;51.488;6.668;2022-12-29T07:15:50;1.85;;;0.90;;
22070;SDS011;11200;51.488;6.668;2022-12-29T07:18:15;2.45;;;1.00;;
22070;SDS011;11200;51.488;6.668;2022-12-29T07:20:41;1.55;;;1.15;;
22070;SDS011;11200;51.488;6.668;2022-12-29T07:23:07;2.10;;;1.05;;
22070;SDS011;11200;51.488;6.668;2022-12-29T07:25:35;2.13;;;1.08;;
22070;SDS011;11200;51.488;6.668;2022-12-29T07:28:01;3.28;;;1.27;;
22070;SDS011;11200;51.488;6.668;2022-12-29T07:30:27;2.30;;;1.00;;
22070;SDS011;11200;51.488;6.668;2022-12-29T07:32:53;1.92;;;0.80;;
22070;SDS011;11200;51.488;6.668;2022-12-29T07:35:18;4.18;;;1.10;;
22070;SDS011;11200;51.488;6.668;2022-12-29T07:37:44;1.80;;;0.85;;
22070;SDS011;11200;51.488;6.668;2022-12-29T07:40:10;4.28;;;1.10;;
22070;SDS011;11200;51.488;6.668;2022-12-29T07:42:36;1.92;;;0.80;;
22070;SDS011;11200;51.488;6.668;2022-12-29T07:45:01;2.13;;;0.90;;
22070;SDS011;11200;51.488;6.668;2022-12-29T07:47:27;4.65;;;1.48;;
22070;SDS011;11200;51.488;6.668;2022-12-29T07:49:53;4.35;;;1.40;;
22070;SDS011;11200;51.488;6.668;2022-12-29T07:52:18;2.83;;;1.10;;
22070;SDS011;11200;51.488;6.668;2022-12-29T07:54:44;2.75;;;1.10;;
22070;SDS011;11200;51.488;6.668;2022-12-29T07:57:10;3.35;;;1.05;;
22070;SDS011;11200;51.488;6.668;2022-12-29T07:59:35;2.45;;;1.10;;
22070;SDS011;11200;51.488;6.668;2022-12-29T08:02:01;2.97;;;1.15;;
22070;SDS011;11200;51.488;6.668;2022-12-29T08:04:26;2.40;;;1.00;;
22070;SDS011;11200;51.488;6.668;2022-12-29T08:06:52;3.22;;;1.15;;
22070;SDS011;11200;51.488;6.668;2022-12-29T08:09:18;4.00;;;1.10;;
22070;SDS011;11200;51.488;6.668;2022-12-29T08:11:43;4.03;;;1.38;;
22070;SDS011;11200;51.488;6.668;2022-12-29T08:14:09;2.92;;;1.05;;
22070;SDS011;11200;51.488;6.668;2022-12-29T08:16:38;4.63;;;1.48;;
22070;SDS011;11200;51.488;6.668;2022-12-29T08:19:04;3.22;;;1.17;;
22070;SDS011;11200;51.488;6.668;2022-12-29T08:21:30;3.85;;;1.48;;
22070;SDS011;11200;51.488;6.668;2022-12-29T08:23:56;4.78;;;1.30;;
22070;SDS011;11200;51.488;6.668;2022-12-29T08:26:22;6.70;;;1.48;;
22070;SDS011;11200;51.488;6.668;2022-12-29T08:28:48;4.65;;;1.35;;
22070;SDS011;11200;51.488;6.668;2022-12-29T08:31:13;3.00;;;1.23;;
22070;SDS011;11200;51.488;6.668;2022-12-29T08:33:39;4.72;;;1.40;;
22070;SDS011;11200;51.488;6.668;2022-12-29T08:36:05;4.57;;;1.05;;
22070;SDS011;11200;51.488;6.668;2022-12-29T08:38:32;3.40;;;1.33;;
22070;SDS011;11200;51.488;6.668;2022-12-29T08:40:58;3.88;;;1.20;;
22070;SDS011;11200;51.488;6.668;2022-12-29T08:43:26;3.33;;;0.98;;
22070;SDS011;11200;51.488;6.668;2022-12-29T08:45:52;3.78;;;1.20;;
22070;SDS011;11200;51.488;6.668;2022-12-29T08:48:18;4.07;;;1.45;;
22070;SDS011;11200;51.488;6.668;2022-12-29T08:50:45;3.35;;;1.27;;
22070;SDS011;11200;51.488;6.668;2022-12-29T08:53:11;3.15;;;1.13;;
22070;SDS011;11200;51.488;6.668;2022-12-29T08:55:40;5.63;;;1.27;;
22070;SDS011;11200;51.488;6.668;2022-12-29T08:58:33;5.15;;;1.42;;
22070;SDS011;11200;51.488;6.668;2022-12-29T09:01:19;5.32;;;1.60;;
22070;SDS011;11200;51.488;6.668;2022-12-29T09:03:48;5.05;;;1.30;;
22070;SDS011;11200;51.488;6.668;2022-12-29T09:06:16;4.43;;;1.42;;
22070;SDS011;11200;51.488;6.668;2022-12-29T09:08:52;7.93;;;1.70;;
22070;SDS011;11200;51.488;6.668;2022-12-29T09:11:20;4.20;;;1.45;;
22070;SDS011;11200;51.488;6.668;2022-12-29T09:13:47;5.05;;;1.30;;
22070;SDS011;11200;51.488;6.668;2022-12-29T09:16:13;3.80;;;1.30;;
22070;SDS011;11200;51.488;6.668;2022-12-29T09:18:39;4.03;;;1.38;;
22070;SDS011;11200;51.488;6.668;2022-12-29T09:21:05;3.60;;;1.10;;
22070;SDS011;11200;51.488;6.668;2022-12-29T09:23:34;4.38;;;1.30;;
22070;SDS011;11200;51.488;6.668;2022-12-29T09:26:01;4.07;;;1.45;;
22070;SDS011;11200;51.488;6.668;2022-12-29T09:28:27;3.83;;;1.30;;
22070;SDS011;11200;51.488;6.668;2022-12-29T09:30:54;3.60;;;1.10;;
22070;SDS011;11200;51.488;6.668;2022-12-29T09:33:20;5.05;;;1.50;;
22070;SDS011;11200;51.488;6.668;2022-12-29T09:35:54;4.63;;;1.50;;
22070;SDS011;11200;51.488;6.668;2022-12-29T09:38:21;3.47;;;1.30;;
22070;SDS011;11200;51.488;6.668;2022-12-29T09:40:51;4.13;;;1.30;;
22070;SDS011;11200;51.488;6.668;2022-12-29T09:45:58;3.67;;;1.40;;
22070;SDS011;11200;51.488;6.668;2022-12-29T09:51:38;6.60;;;1.50;;
22070;SDS011;11200;51.488;6.668;2022-12-29T09:54:19;3.10;;;1.30;;
22070;SDS011;11200;51.488;6.668;2022-12-29T09:56:59;4.03;;;1.45;;
22070;SDS011;11200;51.488;6.668;2022-12-29T09:59:35;4.70;;;1.42;;
22070;SDS011;11200;51.488;6.668;2022-12-29T10:02:18;3.88;;;1.27;;
22070;SDS011;11200;51.488;6.668;2022-12-29T10:05:43;4.45;;;1.50;;
22070;SDS011;11200;51.488;6.668;2022-12-29T10:08:15;5.50;;;1.40;;
22070;SDS011;11200;51.488;6.668;2022-12-29T10:10:53;4.15;;;1.60;;
22070;SDS011;11200;51.488;6.668;2022-12-29T10:16:18;4.82;;;1.40;;
22070;SDS011;11200;51.488;6.668;2022-12-29T10:19:28;4.38;;;1.35;;
22070;SDS011;11200;51.488;6.668;2022-12-29T10:21:59;5.97;;;1.67;;
22070;SDS011;11200;51.488;6.668;2022-12-29T10:24:32;4.78;;;1.58;;
22070;SDS011;11200;51.488;6.668;2022-12-29T10:27:05;4.82;;;1.52;;
22070;SDS011;11200;51.488;6.668;2022-12-29T10:29:37;5.60;;;1.70;;
22070;SDS011;11200;51.488;6.668;2022-12-29T10:32:17;5.40;;;1.55;;
22070;SDS011;11200;51.488;6.668;2022-12-29T10:34:58;7.03;;;1.65;;
22070;SDS011;11200;51.488;6.668;2022-12-29T10:37:51;4.40;;;1.58;;
22070;SDS011;11200;51.488;6.668;2022-12-29T10:40:24;4.45;;;1.33;;
22070;SDS011;11200;51.488;6.668;2022-12-29T10:42:54;4.55;;;1.30;;
22070;SDS011;11200;51.488;6.668;2022-12-29T10:45:22;6.28;;;1.80;;
22070;SDS011;11200;51.488;6.668;2022-12-29T10:48:05;4.68;;;1.17;;
22070;SDS011;11200;51.488;6.668;2022-12-29T10:50:45;5.18;;;1.50;;
22070;SDS011;11200;51.488;6.668;2022-12-29T10:53:17;5.45;;;1.38;;
22070;SDS011;11200;51.488;6.668;2022-12-29T10:55:46;4.40;;;1.50;;
22070;SDS011;11200;51.488;6.668;2022-12-29T10:58:12;4.78;;;1.88;;
22070;SDS011;11200;51.488;6.668;2022-12-29T11:00:39;5.28;;;1.30;;
22070;SDS011;11200;51.488;6.668;2022-12-29T11:05:40;5.72;;;1.70;;
22070;SDS011;11200;51.488;6.668;2022-12-29T11:08:10;4.75;;;1.85;;
22070;SDS011;11200;51.488;6.668;2022-12-29T11:10:40;4.97;;;1.75;;
22070;SDS011;11200;51.488;6.668;2022-12-29T11:13:18;5.32;;;1.65;;
22070;SDS011;11200;51.488;6.668;2022-12-29T11:15:50;5.38;;;1.27;;
22070;SDS011;11200;51.488;6.668;2022-12-29T11:18:27;6.13;;;1.60;;
22070;SDS011;11200;51.488;6.668;2022-12-29T11:21:05;6.22;;;1.63;;
22070;SDS011;11200;51.488;6.668;2022-12-29T11:23:54;7.43;;;1.92;;
22070;SDS011;11200;51.488;6.668;2022-12-29T11:26:24;5.25;;;1.63;;
22070;SDS011;11200;51.488;6.668;2022-12-29T11:31:47;5.30;;;1.50;;
22070;SDS011;11200;51.488;6.668;2022-12-29T11:34:19;5.78;;;1.52;;
22070;SDS011;11200;51.488;6.668;2022-12-29T11:37:00;5.68;;;1.70;;
22070;SDS011;11200;51.488;6.668;2022-12-29T11:42:14;8.52;;;1.88;;
22070;SDS011;11200;51.488;6.668;2022-12-29T11:44:43;6.18;;;1.65;;
22070;SDS011;11200;51.488;6.668;2022-12-29T11:47:13;6.40;;;1.92;;
22070;SDS011;11200;51.488;6.668;2022-12-29T11:49:53;4.13;;;1.35;;
22070;SDS011;11200;51.488;6.668;2022-12-29T11:52:23;5.85;;;1.50;;
22070;SDS011;11200;51.488;6.668;2022-12-29T11:54:51;6.25;;;1.60;;
22070;SDS011;11200;51.488;6.668;2022-12-29T11:57:20;4.68;;;1.90;;
22070;SDS011;11200;51.488;6.668;2022-12-29T12:04:50;6.85;;;1.88;;
22070;SDS011;11200;51.488;6.668;2022-12-29T12:07:42;8.57;;;1.83;;
22070;SDS011;11200;51.488;6.668;2022-12-29T12:10:15;7.07;;;1.60;;
22070;SDS011;11200;51.488;6.668;2022-12-29T12:12:50;5.97;;;1.70;;
22070;SDS011;11200;51.488;6.668;2022-12-29T12:15:29;8.02;;;1.80;;
22070;SDS011;11200;51.488;6.668;2022-12-29T12:19:10;6.00;;;1.80;;
22070;SDS011;11200;51.488;6.668;2022-12-29T12:21:10;5.43;;;1.95;;
22070;SDS011;11200;51.488;6.668;2022-12-29T12:23:54;6.20;;;1.77;;
22070;SDS011;11200;51.488;6.668;2022-12-29T12:32:34;5.97;;;1.60;;
22070;SDS011;11200;51.488;6.668;2022-12-29T12:38:20;5.43;;;1.65;;
22070;SDS011;11200;51.488;6.668;2022-12-29T12:43:28;6.43;;;1.75;;
22070;SDS011;11200;51.488;6.668;2022-12-29T12:48:54;4.05;;;1.33;;
22070;SDS011;11200;51.488;6.668;2022-12-29T12:51:50;6.35;;;1.48;;
22070;SDS011;11200;51.488;6.668;2022-12-29T13:03:44;6.43;;;1.92;;
22070;SDS011;11200;51.488;6.668;2022-12-29T13:13:34;7.70;;;1.98;;
22070;SDS011;11200;51.488;6.668;2022-12-29T13:24:28;6.32;;;1.67;;
22070;SDS011;11200;51.488;6.668;2022-12-29T13:32:30;6.63;;;1.60;;
22070;SDS011;11200;51.488;6.668;2022-12-29T13:38:00;7.97;;;1.70;;
22070;SDS011;11200;51.488;6.668;2022-12-29T13:40:45;8.48;;;2.20;;
22070;SDS011;11200;51.488;6.668;2022-12-29T13:43:15;6.80;;;1.77;;
22070;SDS011;11200;51.488;6.668;2022-12-29T13:45:42;6.00;;;1.83;;
22070;SDS011;11200;51.488;6.668;2022-12-29T13:48:34;4.68;;;1.63;;
22070;SDS011;11200;51.488;6.668;2022-12-29T13:51:13;4.32;;;1.50;;
22070;SDS011;11200;51.488;6.668;2022-12-29T13:56:26;5.75;;;1.83;;
22070;SDS011;11200;51.488;6.668;2022-12-29T14:01:34;5.03;;;1.60;;
22070;SDS011;11200;51.488;6.668;2022-12-29T14:04:09;5.65;;;1.67;;
22070;SDS011;11200;51.488;6.668;2022-12-29T14:06:37;5.35;;;1.80;;
22070;SDS011;11200;51.488;6.668;2022-12-29T14:09:06;7.68;;;1.85;;
22070;SDS011;11200;51.488;6.668;2022-12-29T14:11:51;3.40;;;1.50;;
22070;SDS011;11200;51.488;6.668;2022-12-29T14:14:25;4.85;;;1.60;;
22070;SDS011;11200;51.488;6.668;2022-12-29T14:16:56;5.47;;;1.92;;
22070;SDS011;11200;51.488;6.668;2022-12-29T14:19:38;6.90;;;2.20;;
22070;SDS011;11200;51.488;6.668;2022-12-29T14:22:07;6.53;;;1.85;;
22070;SDS011;11200;51.488;6.668;2022-12-29T14:35:40;5.00;;;1.88;;
22070;SDS011;11200;51.488;6.668;2022-12-29T14:41:16;6.70;;;1.80;;
22070;SDS011;11200;51.488;6.668;2022-12-29T14:43:51;5.78;;;1.50;;
22070;SDS011;11200;51.488;6.668;2022-12-29T14:46:45;4.82;;;1.75;;
22070;SDS011;11200;51.488;6.668;2022-12-29T14:49:25;6.03;;;1.65;;
22070;SDS011;11200;51.488;6.668;2022-12-29T14:54:42;5.57;;;1.70;;
22070;SDS011;11200;51.488;6.668;2022-12-29T14:57:13;4.25;;;1.65;;
22070;SDS011;11200;51.488;6.668;2022-12-29T14:59:45;3.83;;;1.30;;
22070;SDS011;11200;51.488;6.668;2022-12-29T15:02:14;3.90;;;1.70;;
22070;SDS011;11200;51.488;6.668;2022-12-29T15:04:44;5.65;;;1.63;;
22070;SDS011;11200;51.488;6.668;2022-12-29T15:07:11;5.68;;;1.80;;
22070;SDS011;11200;51.488;6.668;2022-12-29T15:09:48;5.88;;;1.63;;
22070;SDS011;11200;51.488;6.668;2022-12-29T15:14:49;5.20;;;1.42;;
22070;SDS011;11200;51.488;6.668;2022-12-29T15:17:29;2.75;;;1.30;;
22070;SDS011;11200;51.488;6.668;2022-12-29T15:19:57;5.63;;;1.88;;
22070;SDS011;11200;51.488;6.668;2022-12-29T15:22:41;4.38;;;1.50;;
22070;SDS011;11200;51.488;6.668;2022-12-29T15:25:14;5.78;;;1.55;;
22070;SDS011;11200;51.488;6.668;2022-12-29T15:27:41;4.05;;;1.50;;
22070;SDS011;11200;51.488;6.668;2022-12-29T15:30:11;5.22;;;1.23;;
22070;SDS011;11200;51.488;6.668;2022-12-29T15:32:47;4.68;;;1.80;;
22070;SDS011;11200;51.488;6.668;2022-12-29T15:35:34;5.05;;;1.48;;
22070;SDS011;11200;51.488;6.668;2022-12-29T15:38:12;3.30;;;1.40;;
22070;SDS011;11200;51.488;6.668;2022-12-29T15:40:40;4.03;;;1.60;;
22070;SDS011;11200;51.488;6.668;2022-12-29T15:43:12;2.75;;;1.42;;
22070;SDS011;11200;51.488;6.668;2022-12-29T15:45:52;4.72;;;1.50;;
22070;SDS011;11200;51.488;6.668;2022-12-29T15:48:21;5.20;;;1.60;;
22070;SDS011;11200;51.488;6.668;2022-12-29T15:50:49;5.60;;;1.70;;
22070;SDS011;11200;51.488;6.668;2022-12-29T15:53:20;4.32;;;1.52;;
22070;SDS011;11200;51.488;6.668;2022-12-29T15:55:53;4.50;;;1.48;;
22070;SDS011;11200;51.488;6.668;2022-12-29T15:58:26;5.57;;;1.50;;
22070;SDS011;11200;51.488;6.668;2022-12-29T16:00:54;6.15;;;1.80;;
22070;SDS011;11200;51.488;6.668;2022-12-29T16:03:22;4.38;;;1.35;;
22070;SDS011;11200;51.488;6.668;2022-12-29T16:05:51;5.10;;;1.58;;
22070;SDS011;11200;51.488;6.668;2022-12-29T16:08:24;5.32;;;1.65;;
22070;SDS011;11200;51.488;6.668;2022-12-29T16:10:57;5.80;;;2.05;;
22070;SDS011;11200;51.488;6.668;2022-12-29T16:13:29;4.70;;;1.65;;
22070;SDS011;11200;51.488;6.668;2022-12-29T16:16:07;5.40;;;1.42;;
22070;SDS011;11200;51.488;6.668;2022-12-29T16:18:38;5.03;;;1.73;;
22070;SDS011;11200;51.488;6.668;2022-12-29T16:21:04;6.18;;;1.50;;
22070;SDS011;11200;51.488;6.668;2022-12-29T16:23:39;5.60;;;1.65;;
22070;SDS011;11200;51.488;6.668;2022-12-29T16:26:14;5.25;;;1.92;;
22070;SDS011;11200;51.488;6.668;2022-12-29T16:28:42;4.45;;;1.40;;
22070;SDS011;11200;51.488;6.668;2022-12-29T16:39:38;4.60;;;1.50;;
22070;SDS011;11200;51.488;6.668;2022-12-29T16:47:48;4.25;;;1.55;;
22070;SDS011;11200;51.488;6.668;2022-12-29T16:50:29;3.42;;;1.27;;
22070;SDS011;11200;51.488;6.668;2022-12-29T16:52:55;3.53;;;1.48;;
22070;SDS011;11200;51.488;6.668;2022-12-29T16:55:21;2.60;;;1.10;;
22070;SDS011;11200;51.488;6.668;2022-12-29T16:57:48;2.47;;;1.05;;
22070;SDS011;11200;51.488;6.668;2022-12-29T17:00:20;3.28;;;1.33;;
22070;SDS011;11200;51.488;6.668;2022-12-29T17:02:50;4.72;;;1.33;;
22070;SDS011;11200;51.488;6.668;2022-12-29T17:05:22;3.83;;;1.50;;
22070;SDS011;11200;51.488;6.668;2022-12-29T17:07:48;4.22;;;1.17;;
22070;SDS011;11200;51.488;6.668;2022-12-29T17:10:15;3.75;;;1.13;;
22070;SDS011;11200;51.488;6.668;2022-12-29T17:12:45;3.70;;;1.38;;
22070;SDS011;11200;51.488;6.668;2022-12-29T17:15:21;3.05;;;1.10;;
22070;SDS011;11200;51.488;6.668;2022-12-29T17:17:51;3.95;;;1.20;;
22070;SDS011;11200;51.488;6.668;2022-12-29T17:20:25;1.95;;;0.88;;
22070;SDS011;11200;51.488;6.668;2022-12-29T17:22:53;5.05;;;1.20;;
22070;SDS011;11200;51.488;6.668;2022-12-29T17:25:20;2.10;;;0.90;;
22070;SDS011;11200;51.488;6.668;2022-12-29T17:27:53;2.75;;;1.00;;
22070;SDS011;11200;51.488;6.668;2022-12-29T17:30:23;2.17;;;0.90;;
22070;SDS011;11200;51.488;6.668;2022-12-29T17:33:09;3.08;;;0.98;;
22070;SDS011;11200;51.488;6.668;2022-12-29T17:35:39;2.60;;;1.17;;